sensor_id;sensor_type;location;lat;lon;timestamp;temperature;humidity
43320;DHT22;28914;48.722;9.332;2024-03-17T00:04:31;10.00;78.50
43320;DHT22;28914;48.722;9.332;2024-03-17T00:09:51;10.00;78.70
43320;DHT22;28914;48.722;9.332;2024-03-17T00:15:10;9.90;78.80
43320;DHT22;28914;48.722;9.332;2024-03-17T00:20:29;9.80;79.00
43320;DHT22;28914;48.722;9.332;2024-03-17T00:25:49;9.80;79.20
43320;DHT22;28914;48.722;9.332;2024-03-17T00:31:09;9.80;79.60
43320;DHT22;28914;48.722;9.332;2024-03-17T00:36:29;9.80;79.80
43320;DHT22;28914;48.722;9.332;2024-03-17T00:41:48;9.80;80.00
43320;DHT22;28914;48.722;9.332;2024-03-17T00:47:08;9.80;80.10
43320;DHT22;28914;48.722;9.332;2024-03-17T00:52:27;9.90;80.30
43320;DHT22;28914;48.722;9.332;2024-03-17T00:57:46;9.90;80.50
43320;DHT22;28914;48.722;9.332;2024-03-17T01:03:06;9.90;80.50
43320;DHT22;28914;48.722;9.332;2024-03-17T01:08:25;10.00;80.70
43320;DHT22;28914;48.722;9.332;2024-03-17T01:13:47;10.00;80.70
43320;DHT22;28914;48.722;9.332;2024-03-17T01:19:07;10.10;80.80
43320;DHT22;28914;48.722;9.332;2024-03-17T01:24:26;10.20;81.00
43320;DHT22;28914;48.722;9.332;2024-03-17T01:29:50;10.20;81.00
43320;DHT22;28914;48.722;9.332;2024-03-17T01:35:09;10.30;81.00
43320;DHT22;28914;48.722;9.332;2024-03-17T01:40:28;10.30;81.20
43320;DHT22;28914;48.722;9.332;2024-03-17T01:45:48;10.40;81.30
43320;DHT22;28914;48.722;9.332;2024-03-17T01:51:08;10.50;81.40
43320;DHT22;28914;48.722;9.332;2024-03-17T01:56:29;10.60;81.40
43320;DHT22;28914;48.722;9.332;2024-03-17T02:01:48;10.60;81.50
43320;DHT22;28914;48.722;9.332;2024-03-17T02:07:07;10.70;81.40
43320;DHT22;28914;48.722;9.332;2024-03-17T02:12:27;10.70;81.30
43320;DHT22;28914;48.722;9.332;2024-03-17T02:17:47;10.80;81.30
43320;DHT22;28914;48.722;9.332;2024-03-17T02:23:06;10.80;81.30
43320;DHT22;28914;48.722;9.332;2024-03-17T02:28:25;10.80;81.30
43320;DHT22;28914;48.722;9.332;2024-03-17T02:33:45;10.80;81.40
43320;DHT22;28914;48.722;9.332;2024-03-17T02:39:04;10.80;81.20
43320;DHT22;28914;48.722;9.332;2024-03-17T02:44:42;10.90;81.30
43320;DHT22;28914;48.722;9.332;2024-03-17T02:50:01;10.80;81.10
43320;DHT22;28914;48.722;9.332;2024-03-17T02:55:21;10.80;81.10
43320;DHT22;28914;48.722;9.332;2024-03-17T03:00:40;10.80;81.10
43320;DHT22;28914;48.722;9.332;2024-03-17T03:05:59;10.80;81.20
43320;DHT22;28914;48.722;9.332;2024-03-17T03:11:23;10.80;81.20
43320;DHT22;28914;48.722;9.332;2024-03-17T03:16:42;10.80;81.30
43320;DHT22;28914;48.722;9.332;2024-03-17T03:22:01;10.70;81.10
43320;DHT22;28914;48.722;9.332;2024-03-17T03:27:20;10.60;81.10
43320;DHT22;28914;48.722;9.332;2024-03-17T03:32:39;10.60;81.20
43320;DHT22;28914;48.722;9.332;2024-03-17T03:37:59;10.50;81.30
43320;DHT22;28914;48.722;9.332;2024-03-17T03:43:18;10.50;81.20
43320;DHT22;28914;48.722;9.332;2024-03-17T03:48:37;10.40;81.10
43320;DHT22;28914;48.722;9.332;2024-03-17T03:53:56;10.40;81.20
43320;DHT22;28914;48.722;9.332;2024-03-17T03:59:15;10.30;81.10
43320;DHT22;28914;48.722;9.332;2024-03-17T04:04:35;10.20;81.20
43320;DHT22;28914;48.722;9.332;2024-03-17T04:09:54;10.10;81.10
43320;DHT22;28914;48.722;9.332;2024-03-17T04:15:13;10.00;81.00
43320;DHT22;28914;48.722;9.332;2024-03-17T04:20:33;9.90;81.20
43320;DHT22;28914;48.722;9.332;2024-03-17T04:25:53;9.90;81.50
43320;DHT22;28914;48.722;9.332;2024-03-17T04:31:12;9.80;81.70
43320;DHT22;28914;48.722;9.332;2024-03-17T04:36:32;9.80;81.80
43320;DHT22;28914;48.722;9.332;2024-03-17T04:41:51;9.80;82.00
43320;DHT22;28914;48.722;9.332;2024-03-17T04:47:10;9.90;82.10
43320;DHT22;28914;48.722;9.332;2024-03-17T04:52:30;9.90;82.10
43320;DHT22;28914;48.722;9.332;2024-03-17T04:57:49;9.90;82.10
43320;DHT22;28914;48.722;9.332;2024-03-17T05:03:09;9.80;82.00
43320;DHT22;28914;48.722;9.332;2024-03-17T05:08:29;9.80;82.00
43320;DHT22;28914;48.722;9.332;2024-03-17T05:13:49;9.80;82.00
43320;DHT22;28914;48.722;9.332;2024-03-17T05:19:08;9.70;81.80
43320;DHT22;28914;48.722;9.332;2024-03-17T05:24:28;9.70;81.90
43320;DHT22;28914;48.722;9.332;2024-03-17T05:29:47;9.60;81.80
43320;DHT22;28914;48.722;9.332;2024-03-17T05:35:07;9.50;81.70
43320;DHT22;28914;48.722;9.332;2024-03-17T05:40:25;9.40;81.80
43320;DHT22;28914;48.722;9.332;2024-03-17T05:45:45;9.40;82.00
43320;DHT22;28914;48.722;9.332;2024-03-17T05:51:08;9.30;82.20
43320;DHT22;28914;48.722;9.332;2024-03-17T05:56:27;9.30;82.60
43320;DHT22;28914;48.722;9.332;2024-03-17T06:01:46;9.40;82.80
43320;DHT22;28914;48.722;9.332;2024-03-17T06:07:06;9.40;82.80
43320;DHT22;28914;48.722;9.332;2024-03-17T06:12:25;9.50;83.10
43320;DHT22;28914;48.722;9.332;2024-03-17T06:17:44;9.50;83.30
43320;DHT22;28914;48.722;9.332;2024-03-17T06:23:04;9.60;83.30
43320;DHT22;28914;48.722;9.332;2024-03-17T06:28:24;9.70;83.20
43320;DHT22;28914;48.722;9.332;2024-03-17T06:33:43;9.70;82.90
43320;DHT22;28914;48.722;9.332;2024-03-17T06:39:02;9.80;82.90
43320;DHT22;28914;48.722;9.332;2024-03-17T06:44:22;9.80;83.00
43320;DHT22;28914;48.722;9.332;2024-03-17T06:49:46;9.90;83.50
43320;DHT22;28914;48.722;9.332;2024-03-17T06:55:05;10.10;84.10
43320;DHT22;28914;48.722;9.332;2024-03-17T07:00:25;10.30;84.40
43320;DHT22;28914;48.722;9.332;2024-03-17T07:06:00;10.50;84.10
43320;DHT22;28914;48.722;9.332;2024-03-17T07:11:21;10.80;84.00
43320;DHT22;28914;48.722;9.332;2024-03-17T07:16:42;11.00;83.70
43320;DHT22;28914;48.722;9.332;2024-03-17T07:22:02;11.20;83.50
43320;DHT22;28914;48.722;9.332;2024-03-17T07:27:22;11.50;83.60
43320;DHT22;28914;48.722;9.332;2024-03-17T07:32:42;11.80;83.50
43320;DHT22;28914;48.722;9.332;2024-03-17T07:38:01;12.20;83.20
43320;DHT22;28914;48.722;9.332;2024-03-17T07:43:20;12.50;82.60
43320;DHT22;28914;48.722;9.332;2024-03-17T07:48:41;12.90;82.20
43320;DHT22;28914;48.722;9.332;2024-03-17T07:54:00;13.10;80.70
43320;DHT22;28914;48.722;9.332;2024-03-17T07:59:20;13.30;79.60
43320;DHT22;28914;48.722;9.332;2024-03-17T08:04:39;13.60;79.80
43320;DHT22;28914;48.722;9.332;2024-03-17T08:09:58;13.90;79.60
43320;DHT22;28914;48.722;9.332;2024-03-17T08:15:18;14.30;78.60
43320;DHT22;28914;48.722;9.332;2024-03-17T08:20:41;14.60;77.60
43320;DHT22;28914;48.722;9.332;2024-03-17T08:26:05;14.80;77.40
43320;DHT22;28914;48.722;9.332;2024-03-17T08:31:24;15.20;76.90
43320;DHT22;28914;48.722;9.332;2024-03-17T08:36:44;15.50;75.60
43320;DHT22;28914;48.722;9.332;2024-03-17T08:42:03;15.60;74.60
43320;DHT22;28914;48.722;9.332;2024-03-17T08:47:22;15.80;74.70
43320;DHT22;28914;48.722;9.332;2024-03-17T08:52:42;16.10;74.50
43320;DHT22;28914;48.722;9.332;2024-03-17T08:58:01;16.40;74.40
43320;DHT22;28914;48.722;9.332;2024-03-17T09:03:20;17.20;76.50
43320;DHT22;28914;48.722;9.332;2024-03-17T09:08:39;18.30;75.20
43320;DHT22;28914;48.722;9.332;2024-03-17T09:13:58;19.30;72.70
43320;DHT22;28914;48.722;9.332;2024-03-17T09:19:18;20.00;68.20
43320;DHT22;28914;48.722;9.332;2024-03-17T09:24:37;20.80;69.40
43320;DHT22;28914;48.722;9.332;2024-03-17T09:29:56;21.60;66.30
43320;DHT22;28914;48.722;9.332;2024-03-17T09:35:17;22.30;62.40
43320;DHT22;28914;48.722;9.332;2024-03-17T09:40:37;22.60;60.90
43320;DHT22;28914;48.722;9.332;2024-03-17T09:45:56;22.90;60.90
43320;DHT22;28914;48.722;9.332;2024-03-17T09:56:40;23.20;57.90
43320;DHT22;28914;48.722;9.332;2024-03-17T10:01:59;23.40;57.00
43320;DHT22;28914;48.722;9.332;2024-03-17T10:07:37;23.50;55.80
43320;DHT22;28914;48.722;9.332;2024-03-17T10:12:56;23.30;52.80
43320;DHT22;28914;48.722;9.332;2024-03-17T10:18:22;23.20;55.40
43320;DHT22;28914;48.722;9.332;2024-03-17T10:23:42;23.50;54.00
43320;DHT22;28914;48.722;9.332;2024-03-17T10:29:01;23.80;51.60
43320;DHT22;28914;48.722;9.332;2024-03-17T10:34:22;23.70;52.20
43320;DHT22;28914;48.722;9.332;2024-03-17T10:39:44;23.60;51.40
43320;DHT22;28914;48.722;9.332;2024-03-17T10:45:06;23.50;52.00
43320;DHT22;28914;48.722;9.332;2024-03-17T10:50:31;23.30;51.40
43320;DHT22;28914;48.722;9.332;2024-03-17T10:55:50;23.30;51.00
43320;DHT22;28914;48.722;9.332;2024-03-17T11:01:11;23.50;50.80
43320;DHT22;28914;48.722;9.332;2024-03-17T11:06:32;23.70;52.60
43320;DHT22;28914;48.722;9.332;2024-03-17T11:11:51;24.30;53.30
43320;DHT22;28914;48.722;9.332;2024-03-17T11:17:18;25.60;53.20
43320;DHT22;28914;48.722;9.332;2024-03-17T11:22:49;27.30;49.70
43320;DHT22;28914;48.722;9.332;2024-03-17T11:28:10;28.40;48.10
43320;DHT22;28914;48.722;9.332;2024-03-17T11:39:07;27.90;45.70
43320;DHT22;28914;48.722;9.332;2024-03-17T11:44:36;27.30;46.50
43320;DHT22;28914;48.722;9.332;2024-03-17T11:49:55;27.10;46.20
43320;DHT22;28914;48.722;9.332;2024-03-17T11:55:17;27.00;45.60
43320;DHT22;28914;48.722;9.332;2024-03-17T12:00:37;27.00;47.40
43320;DHT22;28914;48.722;9.332;2024-03-17T12:05:57;26.90;46.60
43320;DHT22;28914;48.722;9.332;2024-03-17T12:11:18;26.50;46.70
43320;DHT22;28914;48.722;9.332;2024-03-17T12:16:37;26.00;45.40
43320;DHT22;28914;48.722;9.332;2024-03-17T12:22:00;25.40;45.60
43320;DHT22;28914;48.722;9.332;2024-03-17T12:27:24;24.80;46.50
43320;DHT22;28914;48.722;9.332;2024-03-17T12:32:43;24.20;46.80
43320;DHT22;28914;48.722;9.332;2024-03-17T12:38:03;23.60;48.10
43320;DHT22;28914;48.722;9.332;2024-03-17T12:43:48;23.20;47.80
43320;DHT22;28914;48.722;9.332;2024-03-17T12:49:09;22.70;48.40
43320;DHT22;28914;48.722;9.332;2024-03-17T12:54:29;22.30;49.30
43320;DHT22;28914;48.722;9.332;2024-03-17T12:59:49;22.00;49.30
43320;DHT22;28914;48.722;9.332;2024-03-17T13:05:28;21.80;49.50
43320;DHT22;28914;48.722;9.332;2024-03-17T13:10:47;21.40;49.80
43320;DHT22;28914;48.722;9.332;2024-03-17T13:16:06;21.20;50.10
43320;DHT22;28914;48.722;9.332;2024-03-17T13:21:28;20.90;50.60
43320;DHT22;28914;48.722;9.332;2024-03-17T13:26:47;20.70;50.80
43320;DHT22;28914;48.722;9.332;2024-03-17T13:32:08;20.60;51.00
43320;DHT22;28914;48.722;9.332;2024-03-17T13:37:26;20.50;51.60
43320;DHT22;28914;48.722;9.332;2024-03-17T13:42:47;20.50;51.70
43320;DHT22;28914;48.722;9.332;2024-03-17T13:48:07;20.40;51.30
43320;DHT22;28914;48.722;9.332;2024-03-17T13:53:29;20.40;51.90
43320;DHT22;28914;48.722;9.332;2024-03-17T13:58:51;20.40;52.40
43320;DHT22;28914;48.722;9.332;2024-03-17T14:04:17;20.40;51.70
43320;DHT22;28914;48.722;9.332;2024-03-17T14:09:36;20.40;51.70
43320;DHT22;28914;48.722;9.332;2024-03-17T14:14:55;20.30;51.80
43320;DHT22;28914;48.722;9.332;2024-03-17T14:20:15;20.30;52.30
43320;DHT22;28914;48.722;9.332;2024-03-17T14:25:36;20.30;52.00
43320;DHT22;28914;48.722;9.332;2024-03-17T14:30:56;20.20;52.20
43320;DHT22;28914;48.722;9.332;2024-03-17T14:36:16;20.20;52.50
43320;DHT22;28914;48.722;9.332;2024-03-17T14:41:36;20.10;52.00
43320;DHT22;28914;48.722;9.332;2024-03-17T14:46:56;20.10;52.30
43320;DHT22;28914;48.722;9.332;2024-03-17T14:52:15;20.10;52.50
43320;DHT22;28914;48.722;9.332;2024-03-17T14:57:34;20.20;52.50
43320;DHT22;28914;48.722;9.332;2024-03-17T15:02:53;20.20;52.30
43320;DHT22;28914;48.722;9.332;2024-03-17T15:08:13;20.20;52.20
43320;DHT22;28914;48.722;9.332;2024-03-17T15:13:32;20.20;51.70
43320;DHT22;28914;48.722;9.332;2024-03-17T15:18:51;20.00;51.90
43320;DHT22;28914;48.722;9.332;2024-03-17T15:24:10;19.90;52.20
43320;DHT22;28914;48.722;9.332;2024-03-17T15:29:29;19.70;52.20
43320;DHT22;28914;48.722;9.332;2024-03-17T15:34:48;19.50;52.20
43320;DHT22;28914;48.722;9.332;2024-03-17T15:40:09;19.30;52.50
43320;DHT22;28914;48.722;9.332;2024-03-17T15:45:35;19.20;52.70
43320;DHT22;28914;48.722;9.332;2024-03-17T15:50:58;19.00;52.90
43320;DHT22;28914;48.722;9.332;2024-03-17T15:56:17;18.80;53.00
43320;DHT22;28914;48.722;9.332;2024-03-17T16:01:36;18.70;53.20
43320;DHT22;28914;48.722;9.332;2024-03-17T16:06:55;18.70;53.80
43320;DHT22;28914;48.722;9.332;2024-03-17T16:12:14;18.60;53.70
43320;DHT22;28914;48.722;9.332;2024-03-17T16:17:36;18.50;53.90
43320;DHT22;28914;48.722;9.332;2024-03-17T16:22:57;18.50;54.00
43320;DHT22;28914;48.722;9.332;2024-03-17T16:28:17;18.50;54.30
43320;DHT22;28914;48.722;9.332;2024-03-17T16:33:39;18.40;54.90
43320;DHT22;28914;48.722;9.332;2024-03-17T16:38:58;18.40;55.30
43320;DHT22;28914;48.722;9.332;2024-03-17T16:44:26;18.30;55.50
43320;DHT22;28914;48.722;9.332;2024-03-17T16:49:46;18.20;55.70
43320;DHT22;28914;48.722;9.332;2024-03-17T16:55:06;18.20;55.70
43320;DHT22;28914;48.722;9.332;2024-03-17T17:00:25;18.10;56.40
43320;DHT22;28914;48.722;9.332;2024-03-17T17:05:45;18.00;56.60
43320;DHT22;28914;48.722;9.332;2024-03-17T17:11:04;17.90;56.70
43320;DHT22;28914;48.722;9.332;2024-03-17T17:16:23;17.90;56.80
43320;DHT22;28914;48.722;9.332;2024-03-17T17:21:43;17.70;57.00
43320;DHT22;28914;48.722;9.332;2024-03-17T17:27:09;17.60;57.30
43320;DHT22;28914;48.722;9.332;2024-03-17T17:32:28;17.40;57.90
43320;DHT22;28914;48.722;9.332;2024-03-17T17:37:48;17.30;57.80
43320;DHT22;28914;48.722;9.332;2024-03-17T17:43:07;17.20;58.10
43320;DHT22;28914;48.722;9.332;2024-03-17T17:48:27;17.00;58.10
43320;DHT22;28914;48.722;9.332;2024-03-17T17:53:48;16.90;58.70
43320;DHT22;28914;48.722;9.332;2024-03-17T17:59:08;16.80;58.90
43320;DHT22;28914;48.722;9.332;2024-03-17T18:04:28;16.70;59.20
43320;DHT22;28914;48.722;9.332;2024-03-17T18:09:47;16.50;59.30
43320;DHT22;28914;48.722;9.332;2024-03-17T18:15:07;16.50;59.60
43320;DHT22;28914;48.722;9.332;2024-03-17T18:20:26;16.40;59.80
43320;DHT22;28914;48.722;9.332;2024-03-17T18:25:48;16.30;60.40
43320;DHT22;28914;48.722;9.332;2024-03-17T18:31:07;16.30;60.70
43320;DHT22;28914;48.722;9.332;2024-03-17T18:36:27;16.20;60.80
43320;DHT22;28914;48.722;9.332;2024-03-17T18:41:46;16.20;61.20
43320;DHT22;28914;48.722;9.332;2024-03-17T18:47:06;16.10;61.50
43320;DHT22;28914;48.722;9.332;2024-03-17T18:52:25;16.00;61.80
43320;DHT22;28914;48.722;9.332;2024-03-17T18:57:44;16.00;62.10
43320;DHT22;28914;48.722;9.332;2024-03-17T19:03:04;16.00;62.50
43320;DHT22;28914;48.722;9.332;2024-03-17T19:08:24;15.90;62.70
43320;DHT22;28914;48.722;9.332;2024-03-17T19:13:43;15.80;62.90
43320;DHT22;28914;48.722;9.332;2024-03-17T19:19:03;15.80;63.00
43320;DHT22;28914;48.722;9.332;2024-03-17T19:24:22;15.80;63.10
43320;DHT22;28914;48.722;9.332;2024-03-17T19:29:41;15.70;63.30
43320;DHT22;28914;48.722;9.332;2024-03-17T19:35:01;15.70;63.60
43320;DHT22;28914;48.722;9.332;2024-03-17T19:40:20;15.70;63.60
43320;DHT22;28914;48.722;9.332;2024-03-17T19:45:39;15.60;64.40
43320;DHT22;28914;48.722;9.332;2024-03-17T19:51:08;15.50;63.70
43320;DHT22;28914;48.722;9.332;2024-03-17T19:56:28;15.50;64.10
43320;DHT22;28914;48.722;9.332;2024-03-17T20:01:47;15.40;64.00
43320;DHT22;28914;48.722;9.332;2024-03-17T20:07:07;15.40;64.40
43320;DHT22;28914;48.722;9.332;2024-03-17T20:12:27;15.30;64.60
43320;DHT22;28914;48.722;9.332;2024-03-17T20:17:46;15.10;64.70
43320;DHT22;28914;48.722;9.332;2024-03-17T20:23:05;15.00;64.90
43320;DHT22;28914;48.722;9.332;2024-03-17T20:28:24;14.90;65.00
43320;DHT22;28914;48.722;9.332;2024-03-17T20:33:44;14.80;66.20
43320;DHT22;28914;48.722;9.332;2024-03-17T20:39:03;14.80;65.80
43320;DHT22;28914;48.722;9.332;2024-03-17T20:44:22;14.70;66.00
43320;DHT22;28914;48.722;9.332;2024-03-17T20:49:42;14.70;66.10
43320;DHT22;28914;48.722;9.332;2024-03-17T20:55:01;14.60;66.10
43320;DHT22;28914;48.722;9.332;2024-03-17T21:00:22;14.60;66.30
43320;DHT22;28914;48.722;9.332;2024-03-17T21:05:43;14.50;66.30
43320;DHT22;28914;48.722;9.332;2024-03-17T21:11:02;14.40;66.40
43320;DHT22;28914;48.722;9.332;2024-03-17T21:16:21;14.40;66.80
43320;DHT22;28914;48.722;9.332;2024-03-17T21:21:40;14.30;67.30
43320;DHT22;28914;48.722;9.332;2024-03-17T21:27:00;14.20;67.50
43320;DHT22;28914;48.722;9.332;2024-03-17T21:32:19;14.20;67.40
43320;DHT22;28914;48.722;9.332;2024-03-17T21:37:38;14.10;67.50
43320;DHT22;28914;48.722;9.332;2024-03-17T21:43:01;14.10;67.90
43320;DHT22;28914;48.722;9.332;2024-03-17T21:48:19;14.10;67.90
43320;DHT22;28914;48.722;9.332;2024-03-17T21:53:39;14.10;68.10
43320;DHT22;28914;48.722;9.332;2024-03-17T21:58:58;14.10;68.40
43320;DHT22;28914;48.722;9.332;2024-03-17T22:04:17;14.00;68.40
43320;DHT22;28914;48.722;9.332;2024-03-17T22:09:36;14.00;68.60
43320;DHT22;28914;48.722;9.332;2024-03-17T22:14:56;14.00;68.60
43320;DHT22;28914;48.722;9.332;2024-03-17T22:20:16;14.00;68.90
43320;DHT22;28914;48.722;9.332;2024-03-17T22:25:35;14.00;69.00
43320;DHT22;28914;48.722;9.332;2024-03-17T22:30:55;14.00;69.20
43320;DHT22;28914;48.722;9.332;2024-03-17T22:36:16;14.00;69.70
43320;DHT22;28914;48.722;9.332;2024-03-17T22:41:35;14.00;69.60
43320;DHT22;28914;48.722;9.332;2024-03-17T22:46:54;14.00;70.00
43320;DHT22;28914;48.722;9.332;2024-03-17T22:52:13;14.00;70.50
43320;DHT22;28914;48.722;9.332;2024-03-17T22:57:33;14.00;71.00
43320;DHT22;28914;48.722;9.332;2024-03-17T23:02:52;13.90;71.00
43320;DHT22;28914;48.722;9.332;2024-03-17T23:08:11;13.90;71.20
43320;DHT22;28914;48.722;9.332;2024-03-17T23:13:34;13.90;71.60
43320;DHT22;28914;48.722;9.332;2024-03-17T23:18:53;13.90;72.30
43320;DHT22;28914;48.722;9.332;2024-03-17T23:24:12;13.80;72.70
43320;DHT22;28914;48.722;9.332;2024-03-17T23:29:32;13.80;72.80
43320;DHT22;28914;48.722;9.332;2024-03-17T23:34:51;13.90;73.00
43320;DHT22;28914;48.722;9.332;2024-03-17T23:40:11;13.90;73.10
43320;DHT22;28914;48.722;9.332;2024-03-17T23:45:33;13.90;73.30
43320;DHT22;28914;48.722;9.332;2024-03-17T23:50:53;13.80;73.30
43320;DHT22;28914;48.722;9.332;2024-03-17T23:56:13;13.80;73.70
